tititudorancea.com
Station Historical Data
Daily Summary for November 8, 2018 Units:  Both    English   Metric
« Previous Day
Next Day »
Daily Weekly Monthly Yearly Custom
  High: Low: Average:
Temperature: TemperatureF °F /  -17.8 °C 34.6 °F /  1.4 °C 44.8 °F /  7.1 °C
Dew Point: DewpointF °F /  -17.8 °C 32.5 °F /  0.3 °C 37 °F /  2.8 °C
Humidity: Humidity % 43 % 76 %
Wind Speed: WindSpeedMPH mph /  0 km/h - 3.1 mph /  5 km/h
Wind Gust: WindSpeedGustMPH mph /  0 km/h - -
Wind:- - WSW
Pressure: PressureIn in /  0 hPa 30.02 in /  1016.5 hPa -
Precipitation: 0.00 in /  0 mm    
Historical Graphs
 
 
Ararat weather Find more about Weather in Ararat, AU


 



 


Tabular Data for November 8, 2018
Time Temperature Dew Point Pressure Wind Wind Speed Wind Gust Humidity Rainfall Rate (Hourly)
TemperatureF °F /  -17.8 °C DewpointF °F /  -17.8 °C PressureIn in /  0 hPa Calm     Humidity % HourlyPrecipIn in /  0 mm
00:04 44.1 °F /  6.7 °C 37.3 °F /  2.9 °C 30.02 in /  1016.5 hPa WSW 10.4 mph /  16.7 km/h 6.5 mph /  10.5 km/h 77 % 0.00 in /  0 mm
00:09 44.1 °F /  6.7 °C 37.0 °F /  2.8 °C 30.02 in /  1016.5 hPa WSW 6.9 mph /  11.1 km/h 6.0 mph /  9.7 km/h 76 % 0.00 in /  0 mm
00:14 44.1 °F /  6.7 °C 36.7 °F /  2.6 °C 30.02 in /  1016.5 hPa WSW 8.1 mph /  13 km/h 6.5 mph /  10.5 km/h 75 % 0.00 in /  0 mm
00:19 44.2 °F /  6.8 °C 36.4 °F /  2.4 °C 30.03 in /  1016.8 hPa SW 11.5 mph /  18.5 km/h 6.1 mph /  9.8 km/h 74 % 0.00 in /  0 mm
00:24 44.8 °F /  7.1 °C 36.3 °F /  2.4 °C 30.03 in /  1016.8 hPa SW 13.8 mph /  22.2 km/h 7.0 mph /  11.3 km/h 72 % 0.00 in /  0 mm
00:29 44.9 °F /  7.2 °C 36.4 °F /  2.4 °C 30.03 in /  1016.8 hPa SW 11.5 mph /  18.5 km/h 7.8 mph /  12.6 km/h 72 % 0.00 in /  0 mm
00:34 44.7 °F /  7.1 °C 36.2 °F /  2.3 °C 30.03 in /  1016.8 hPa SW 9.2 mph /  14.8 km/h 5.0 mph /  8 km/h 72 % 0.00 in /  0 mm
00:39 44.4 °F /  6.9 °C 36.3 °F /  2.4 °C 30.03 in /  1016.8 hPa SW 5.0 mph /  8 km/h 3.6 mph /  5.8 km/h 73 % 0.00 in /  0 mm
00:44 44.0 °F /  6.7 °C 36.2 °F /  2.3 °C 30.03 in /  1016.8 hPa SW 5.8 mph /  9.3 km/h 4.1 mph /  6.6 km/h 74 % 0.00 in /  0 mm
00:49 43.6 °F /  6.4 °C 36.2 °F /  2.3 °C 30.03 in /  1016.8 hPa North 5.0 mph /  8 km/h 3.5 mph /  5.6 km/h 75 % 0.00 in /  0 mm
00:54 43.3 °F /  6.3 °C 36.2 °F /  2.3 °C 30.04 in /  1017.2 hPa SW 4.6 mph /  7.4 km/h 3.7 mph /  6 km/h 76 % 0.00 in /  0 mm
00:59 43.0 °F /  6.1 °C 36.0 °F /  2.2 °C 30.04 in /  1017.2 hPa North 1.2 mph /  1.9 km/h 0.3 mph /  0.5 km/h 76 % 0.00 in /  0 mm
01:04 42.8 °F /  6 °C 36.1 °F /  2.3 °C 30.04 in /  1017.2 hPa SW 2.3 mph /  3.7 km/h 0.7 mph /  1.1 km/h 77 % 0.00 in /  0 mm
01:09 42.5 °F /  5.8 °C 36.1 °F /  2.3 °C 30.04 in /  1017.2 hPa SW 5.0 mph /  8 km/h 3.2 mph /  5.1 km/h 78 % 0.00 in /  0 mm
01:14 42.2 °F /  5.7 °C 35.8 °F /  2.1 °C 30.04 in /  1017.2 hPa SW 4.6 mph /  7.4 km/h 2.5 mph /  4 km/h 78 % 0.00 in /  0 mm
01:19 42.0 °F /  5.6 °C 36.0 °F /  2.2 °C 30.04 in /  1017.2 hPa SW 5.8 mph /  9.3 km/h 4.0 mph /  6.4 km/h 79 % 0.00 in /  0 mm
01:24 41.9 °F /  5.5 °C 35.9 °F /  2.2 °C 30.03 in /  1016.8 hPa SW 4.0 mph /  6.4 km/h 2.1 mph /  3.4 km/h 79 % 0.00 in /  0 mm
01:29 41.8 °F /  5.4 °C 36.1 °F /  2.3 °C 30.04 in /  1017.2 hPa SW 3.0 mph /  4.8 km/h 1.4 mph /  2.3 km/h 80 % 0.00 in /  0 mm
01:34 41.7 °F /  5.4 °C 36.0 °F /  2.2 °C 30.04 in /  1017.2 hPa SW 3.5 mph /  5.6 km/h 1.1 mph /  1.8 km/h 80 % 0.00 in /  0 mm
01:39 41.6 °F /  5.3 °C 36.2 °F /  2.3 °C 30.03 in /  1016.8 hPa SW 3.5 mph /  5.6 km/h 2.8 mph /  4.5 km/h 81 % 0.00 in /  0 mm
01:44 41.5 °F /  5.3 °C 36.1 °F /  2.3 °C 30.03 in /  1016.8 hPa SW 4.6 mph /  7.4 km/h 2.5 mph /  4 km/h 81 % 0.00 in /  0 mm
01:49 41.4 °F /  5.2 °C 36.0 °F /  2.2 °C 30.03 in /  1016.8 hPa SW 3.5 mph /  5.6 km/h 2.4 mph /  3.9 km/h 81 % 0.00 in /  0 mm
01:54 41.3 °F /  5.2 °C 36.2 °F /  2.3 °C 30.03 in /  1016.8 hPa SW 3.5 mph /  5.6 km/h 2.4 mph /  3.9 km/h 82 % 0.00 in /  0 mm
01:59 41.2 °F /  5.1 °C 36.1 °F /  2.3 °C 30.03 in /  1016.8 hPa SW 3.5 mph /  5.6 km/h 2.7 mph /  4.3 km/h 82 % 0.00 in /  0 mm
02:04 41.0 °F /  5 °C 35.9 °F /  2.2 °C 30.03 in /  1016.8 hPa SW 3.5 mph /  5.6 km/h 2.0 mph /  3.2 km/h 82 % 0.00 in /  0 mm
02:05 44.1 °F /  6.7 °C 37.3 °F /  2.9 °C 30.02 in /  1016.5 hPa WSW 6.0 mph /  9.7 km/h 12.0 mph /  19.3 km/h 77 % 0.00 in /  0 mm
02:09 41.0 °F /  5 °C 36.2 °F /  2.3 °C 30.03 in /  1016.8 hPa SW 2.3 mph /  3.7 km/h 0.1 mph /  0.2 km/h 83 % 0.00 in /  0 mm
02:10 44.1 °F /  6.7 °C 37.3 °F /  2.9 °C 30.02 in /  1016.5 hPa WSW 7.0 mph /  11.3 km/h 10.0 mph /  16.1 km/h 77 % 0.00 in /  0 mm
02:14 40.8 °F /  4.9 °C 36.0 °F /  2.2 °C 30.03 in /  1016.8 hPa North 1.2 mph /  1.9 km/h   83 % 0.00 in /  0 mm
02:15 44.1 °F /  6.7 °C 37.0 °F /  2.8 °C 30.02 in /  1016.5 hPa WSW 3.0 mph /  4.8 km/h 8.0 mph /  12.9 km/h 76 % 0.00 in /  0 mm
02:19 40.6 °F /  4.8 °C 35.5 °F /  1.9 °C 30.03 in /  1016.8 hPa Calm     82 % 0.00 in /  0 mm
02:20 44.1 °F /  6.7 °C 36.3 °F /  2.4 °C 30.02 in /  1016.5 hPa WSW 5.0 mph /  8 km/h 11.0 mph /  17.7 km/h 74 % 0.00 in /  0 mm
02:24 40.3 °F /  4.6 °C 35.5 °F /  1.9 °C 30.03 in /  1016.8 hPa Calm     83 % 0.00 in /  0 mm
02:25 44.3 °F /  6.8 °C 36.2 °F /  2.3 °C 30.03 in /  1016.8 hPa SW 10.0 mph /  16.1 km/h 13.0 mph /  20.9 km/h 73 % 0.00 in /  0 mm
02:29 39.9 °F /  4.4 °C 35.2 °F /  1.8 °C 30.03 in /  1016.8 hPa SW 2.3 mph /  3.7 km/h 0.3 mph /  0.5 km/h 83 % 0.00 in /  0 mm
02:30 44.8 °F /  7.1 °C 36.3 °F /  2.4 °C 30.03 in /  1016.8 hPa SW 10.0 mph /  16.1 km/h 16.0 mph /  25.7 km/h 72 % 0.00 in /  0 mm
02:34 39.6 °F /  4.2 °C 35.2 °F /  1.8 °C 30.03 in /  1016.8 hPa Calm     84 % 0.00 in /  0 mm
02:35 44.9 °F /  7.2 °C 36.4 °F /  2.4 °C 30.03 in /  1016.8 hPa SW 3.0 mph /  4.8 km/h 12.0 mph /  19.3 km/h 72 % 0.00 in /  0 mm
02:39 39.2 °F /  4 °C 34.8 °F /  1.6 °C 30.03 in /  1016.8 hPa Calm     84 % 0.00 in /  0 mm
02:40 44.6 °F /  7 °C 36.5 °F /  2.5 °C 30.03 in /  1016.8 hPa SW 6.0 mph /  9.7 km/h 11.0 mph /  17.7 km/h 73 % 0.00 in /  0 mm
02:44 38.9 °F /  3.8 °C 34.8 °F /  1.6 °C 30.03 in /  1016.8 hPa Calm     85 % 0.00 in /  0 mm
02:45 44.2 °F /  6.8 °C 36.1 °F /  2.3 °C 30.03 in /  1016.8 hPa SW 3.0 mph /  4.8 km/h 9.0 mph /  14.5 km/h 73 % 0.00 in /  0 mm
02:49 38.6 °F /  3.7 °C 34.5 °F /  1.4 °C 30.03 in /  1016.8 hPa Calm     85 % 0.00 in /  0 mm
02:50 43.8 °F /  6.6 °C 36.0 °F /  2.2 °C 30.03 in /  1016.8 hPa SW 3.0 mph /  4.8 km/h 6.0 mph /  9.7 km/h 74 % 0.00 in /  0 mm
02:54 38.2 °F /  3.4 °C 34.1 °F /  1.2 °C 30.03 in /  1016.8 hPa Calm     85 % 0.00 in /  0 mm
02:55 43.5 °F /  6.4 °C 36.1 °F /  2.3 °C 30.04 in /  1017.2 hPa SW 3.0 mph /  4.8 km/h 6.0 mph /  9.7 km/h 75 % 0.00 in /  0 mm
02:59 37.9 °F /  3.3 °C 34.1 °F /  1.2 °C 30.03 in /  1016.8 hPa Calm     86 % 0.00 in /  0 mm
03:00 43.2 °F /  6.2 °C 36.1 °F /  2.3 °C 30.04 in /  1017.2 hPa SW 3.0 mph /  4.8 km/h 5.0 mph /  8 km/h 76 % 0.00 in /  0 mm
03:04 37.8 °F /  3.2 °C 34.0 °F /  1.1 °C 30.03 in /  1016.8 hPa Calm     86 % 0.00 in /  0 mm
03:05 43.0 °F /  6.1 °C 36.0 °F /  2.2 °C 30.04 in /  1017.2 hPa Calm   2.0 mph /  3.2 km/h 76 % 0.00 in /  0 mm
03:09 37.6 °F /  3.1 °C 33.8 °F /  1 °C 30.03 in /  1016.8 hPa Calm     86 % 0.00 in /  0 mm
03:10 42.7 °F /  5.9 °C 36.0 °F /  2.2 °C 30.04 in /  1017.2 hPa SW 2.0 mph /  3.2 km/h 4.0 mph /  6.4 km/h 77 % 0.00 in /  0 mm
03:14 37.3 °F /  2.9 °C 33.8 °F /  1 °C 30.04 in /  1017.2 hPa Calm     87 % 0.00 in /  0 mm
03:15 42.4 °F /  5.8 °C 36.0 °F /  2.2 °C 30.04 in /  1017.2 hPa SW 3.0 mph /  4.8 km/h 6.0 mph /  9.7 km/h 78 % 0.00 in /  0 mm
03:19 37.1 °F /  2.8 °C 33.6 °F /  0.9 °C 30.04 in /  1017.2 hPa Calm     87 % 0.00 in /  0 mm
03:20 42.1 °F /  5.6 °C 35.7 °F /  2.1 °C 30.04 in /  1017.2 hPa SW 3.0 mph /  4.8 km/h 5.0 mph /  8 km/h 78 % 0.00 in /  0 mm
03:24 36.9 °F /  2.7 °C 33.7 °F /  0.9 °C 30.04 in /  1017.2 hPa Calm     88 % 0.00 in /  0 mm
03:25 42.1 °F /  5.6 °C 36.1 °F /  2.3 °C 30.04 in /  1017.2 hPa SW 3.0 mph /  4.8 km/h 6.0 mph /  9.7 km/h 79 % 0.00 in /  0 mm
03:29 36.9 °F /  2.7 °C 33.7 °F /  0.9 °C 30.04 in /  1017.2 hPa Calm     88 % 0.00 in /  0 mm
03:30 41.9 °F /  5.5 °C 36.2 °F /  2.3 °C 30.04 in /  1017.2 hPa SW 3.0 mph /  4.8 km/h 4.0 mph /  6.4 km/h 80 % 0.00 in /  0 mm
03:34 36.8 °F /  2.7 °C 33.6 °F /  0.9 °C 30.04 in /  1017.2 hPa Calm     88 % 0.00 in /  0 mm
03:35 41.7 °F /  5.4 °C 36.0 °F /  2.2 °C 30.04 in /  1017.2 hPa SW 2.0 mph /  3.2 km/h 4.0 mph /  6.4 km/h 80 % 0.00 in /  0 mm
03:39 36.7 °F /  2.6 °C 33.8 °F /  1 °C 30.04 in /  1017.2 hPa Calm     89 % 0.00 in /  0 mm
03:40 41.6 °F /  5.3 °C 35.9 °F /  2.2 °C 30.04 in /  1017.2 hPa SW 2.0 mph /  3.2 km/h 3.0 mph /  4.8 km/h 80 % 0.00 in /  0 mm
03:44 36.8 °F /  2.7 °C 33.9 °F /  1.1 °C 30.04 in /  1017.2 hPa Calm     89 % 0.00 in /  0 mm
03:45 41.6 °F /  5.3 °C 36.2 °F /  2.3 °C 30.03 in /  1016.8 hPa SW 3.0 mph /  4.8 km/h 4.0 mph /  6.4 km/h 81 % 0.00 in /  0 mm
03:49 37.2 °F /  2.9 °C 34.5 °F /  1.4 °C 30.04 in /  1017.2 hPa Calm     90 % 0.00 in /  0 mm
03:50 41.5 °F /  5.3 °C 36.1 °F /  2.3 °C 30.03 in /  1016.8 hPa SW 3.0 mph /  4.8 km/h 7.0 mph /  11.3 km/h 81 % 0.00 in /  0 mm
03:54 37.3 °F /  2.9 °C 34.6 °F /  1.4 °C 30.04 in /  1017.2 hPa SW 2.3 mph /  3.7 km/h 1.0 mph /  1.6 km/h 90 % 0.00 in /  0 mm
03:55 41.4 °F /  5.2 °C 36.0 °F /  2.2 °C 30.03 in /  1016.8 hPa SW 2.0 mph /  3.2 km/h 4.0 mph /  6.4 km/h 81 % 0.00 in /  0 mm
03:59 37.4 °F /  3 °C 34.7 °F /  1.5 °C 30.04 in /  1017.2 hPa Calm   0.3 mph /  0.5 km/h 90 % 0.00 in /  0 mm
04:00 41.3 °F /  5.2 °C 36.2 °F /  2.3 °C 30.03 in /  1016.8 hPa SW 3.0 mph /  4.8 km/h 4.0 mph /  6.4 km/h 82 % 0.00 in /  0 mm
04:04 37.4 °F /  3 °C 34.7 °F /  1.5 °C 30.04 in /  1017.2 hPa SW 2.3 mph /  3.7 km/h 0.3 mph /  0.5 km/h 90 % 0.00 in /  0 mm
04:05 41.1 °F /  5.1 °C 36.0 °F /  2.2 °C 30.03 in /  1016.8 hPa SW 2.0 mph /  3.2 km/h 4.0 mph /  6.4 km/h 82 % 0.00 in /  0 mm
04:09 37.3 °F /  2.9 °C 34.4 °F /  1.3 °C 30.04 in /  1017.2 hPa North 2.0 mph /  3.2 km/h 0.6 mph /  1 km/h 89 % 0.00 in /  0 mm
04:10 41.0 °F /  5 °C 36.2 °F /  2.3 °C 30.03 in /  1016.8 hPa SW 1.0 mph /  1.6 km/h 4.0 mph /  6.4 km/h 83 % 0.00 in /  0 mm
04:14 37.2 °F /  2.9 °C 34.3 °F /  1.3 °C 30.04 in /  1017.2 hPa Calm     89 % 0.00 in /  0 mm
04:15 40.9 °F /  4.9 °C 36.1 °F /  2.3 °C 30.03 in /  1016.8 hPa Calm   2.0 mph /  3.2 km/h 83 % 0.00 in /  0 mm
04:19 37.0 °F /  2.8 °C 34.3 °F /  1.3 °C 30.04 in /  1017.2 hPa Calm     90 % 0.00 in /  0 mm
04:20 40.8 °F /  4.9 °C 36.0 °F /  2.2 °C 30.03 in /  1016.8 hPa Calm   1.0 mph /  1.6 km/h 83 % 0.00 in /  0 mm
04:24 36.8 °F /  2.7 °C 34.1 °F /  1.2 °C 30.04 in /  1017.2 hPa Calm     90 % 0.00 in /  0 mm
04:25 40.5 °F /  4.7 °C 35.4 °F /  1.9 °C 30.03 in /  1016.8 hPa Calm     82 % 0.00 in /  0 mm
04:29 36.7 °F /  2.6 °C 34.0 °F /  1.1 °C 30.04 in /  1017.2 hPa SW 2.3 mph /  3.7 km/h 1.3 mph /  2.1 km/h 90 % 0.00 in /  0 mm
04:30 40.1 °F /  4.5 °C 35.4 °F /  1.9 °C 30.03 in /  1016.8 hPa Calm     83 % 0.00 in /  0 mm
04:34 36.7 °F /  2.6 °C 34.0 °F /  1.1 °C 30.03 in /  1016.8 hPa SW 1.2 mph /  1.9 km/h 0.9 mph /  1.4 km/h 90 % 0.00 in /  0 mm
04:39 36.7 °F /  2.6 °C 34.0 °F /  1.1 °C 30.04 in /  1017.2 hPa Calm     90 % 0.00 in /  0 mm
04:40 39.5 °F /  4.2 °C 35.1 °F /  1.7 °C 30.03 in /  1016.8 hPa Calm     84 % 0.00 in /  0 mm
04:44 36.3 °F /  2.4 °C 33.6 °F /  0.9 °C 30.04 in /  1017.2 hPa Calm     90 % 0.00 in /  0 mm
04:45 39.1 °F /  3.9 °C 34.7 °F /  1.5 °C 30.03 in /  1016.8 hPa Calm     84 % 0.00 in /  0 mm
04:49 36.2 °F /  2.3 °C 33.5 °F /  0.8 °C 30.04 in /  1017.2 hPa Calm     90 % 0.00 in /  0 mm
04:50 38.8 °F /  3.8 °C 34.4 °F /  1.3 °C 30.03 in /  1016.8 hPa Calm     84 % 0.00 in /  0 mm
04:54 36.1 °F /  2.3 °C 33.7 °F /  0.9 °C 30.04 in /  1017.2 hPa SW 2.3 mph /  3.7 km/h 0.6 mph /  1 km/h 91 % 0.00 in /  0 mm
04:55 38.4 °F /  3.6 °C 34.3 °F /  1.3 °C 30.03 in /  1016.8 hPa Calm     85 % 0.00 in /  0 mm
04:59 36.1 °F /  2.3 °C 33.7 °F /  0.9 °C 30.04 in /  1017.2 hPa Calm     91 % 0.00 in /  0 mm
05:00 38.1 °F /  3.4 °C 34.3 °F /  1.3 °C 30.03 in /  1016.8 hPa Calm     86 % 0.00 in /  0 mm
05:04 36.2 °F /  2.3 °C 33.8 °F /  1 °C 30.05 in /  1017.5 hPa SSW 2.3 mph /  3.7 km/h   91 % 0.00 in /  0 mm
05:05 37.9 °F /  3.3 °C 34.1 °F /  1.2 °C 30.03 in /  1016.8 hPa Calm     86 % 0.00 in /  0 mm
05:09 36.3 °F /  2.4 °C 33.9 °F /  1.1 °C 30.05 in /  1017.5 hPa Calm     91 % 0.00 in /  0 mm
05:10 37.7 °F /  3.2 °C 33.9 °F /  1.1 °C 30.03 in /  1016.8 hPa Calm     86 % 0.00 in /  0 mm
05:14 36.1 °F /  2.3 °C 33.7 °F /  0.9 °C 30.05 in /  1017.5 hPa Calm     91 % 0.00 in /  0 mm
05:15 37.4 °F /  3 °C 33.9 °F /  1.1 °C 30.03 in /  1016.8 hPa Calm     87 % 0.00 in /  0 mm
05:19 35.9 °F /  2.2 °C 33.5 °F /  0.8 °C 30.05 in /  1017.5 hPa Calm     91 % 0.00 in /  0 mm
05:20 37.2 °F /  2.9 °C 33.7 °F /  0.9 °C 30.04 in /  1017.2 hPa Calm     87 % 0.00 in /  0 mm
05:24 35.8 °F /  2.1 °C 33.4 °F /  0.8 °C 30.05 in /  1017.5 hPa Calm     91 % 0.00 in /  0 mm
05:25 37.0 °F /  2.8 °C 33.5 °F /  0.8 °C 30.04 in /  1017.2 hPa Calm     87 % 0.00 in /  0 mm
05:29 35.7 °F /  2.1 °C 33.3 °F /  0.7 °C 30.05 in /  1017.5 hPa Calm     91 % 0.00 in /  0 mm
05:30 36.9 °F /  2.7 °C 33.7 °F /  0.9 °C 30.04 in /  1017.2 hPa Calm     88 % 0.00 in /  0 mm
05:34 35.5 °F /  1.9 °C 33.1 °F /  0.6 °C 30.05 in /  1017.5 hPa Calm     91 % 0.00 in /  0 mm
05:35 36.9 °F /  2.7 °C 33.7 °F /  0.9 °C 30.04 in /  1017.2 hPa Calm   1.0 mph /  1.6 km/h 88 % 0.00 in /  0 mm
05:39 35.3 °F /  1.8 °C 32.9 °F /  0.5 °C 30.06 in /  1017.8 hPa Calm     91 % 0.00 in /  0 mm
05:40 36.8 °F /  2.7 °C 33.6 °F /  0.9 °C 30.04 in /  1017.2 hPa SW 1.0 mph /  1.6 km/h 3.0 mph /  4.8 km/h 88 % 0.00 in /  0 mm
05:44 35.3 °F /  1.8 °C 32.9 °F /  0.5 °C 30.06 in /  1017.8 hPa Calm     91 % 0.00 in /  0 mm
05:45 36.7 °F /  2.6 °C 33.8 °F /  1 °C 30.04 in /  1017.2 hPa Calm   1.0 mph /  1.6 km/h 89 % 0.00 in /  0 mm
05:49 35.4 °F /  1.9 °C 33.3 °F /  0.7 °C 30.06 in /  1017.8 hPa Calm     92 % 0.00 in /  0 mm
05:50 36.9 °F /  2.7 °C 34.2 °F /  1.2 °C 30.04 in /  1017.2 hPa Calm     90 % 0.00 in /  0 mm
05:54 35.4 °F /  1.9 °C 33.3 °F /  0.7 °C 30.06 in /  1017.8 hPa Calm     92 % 0.00 in /  0 mm
05:55 37.2 °F /  2.9 °C 34.5 °F /  1.4 °C 30.04 in /  1017.2 hPa Calm     90 % 0.00 in /  0 mm
05:59 35.2 °F /  1.8 °C 32.8 °F /  0.4 °C 30.06 in /  1017.8 hPa Calm     91 % 0.00 in /  0 mm
06:00 37.4 °F /  3 °C 34.7 °F /  1.5 °C 30.04 in /  1017.2 hPa Calm   2.0 mph /  3.2 km/h 90 % 0.00 in /  0 mm
06:04 35.1 °F /  1.7 °C 33.0 °F /  0.6 °C 30.06 in /  1017.8 hPa Calm     92 % 0.00 in /  0 mm
06:05 37.4 °F /  3 °C 34.7 °F /  1.5 °C 30.04 in /  1017.2 hPa SW 1.0 mph /  1.6 km/h 2.0 mph /  3.2 km/h 90 % 0.00 in /  0 mm
06:09 35.0 °F /  1.7 °C 32.9 °F /  0.5 °C 30.07 in /  1018.2 hPa Calm     92 % 0.00 in /  0 mm
06:10 37.4 °F /  3 °C 34.5 °F /  1.4 °C 30.04 in /  1017.2 hPa Calm   2.0 mph /  3.2 km/h 89 % 0.00 in /  0 mm
06:14 34.9 °F /  1.6 °C 32.8 °F /  0.4 °C 30.07 in /  1018.2 hPa Calm     92 % 0.00 in /  0 mm
06:15 37.2 °F /  2.9 °C 34.3 °F /  1.3 °C 30.04 in /  1017.2 hPa Calm   2.0 mph /  3.2 km/h 89 % 0.00 in /  0 mm
06:19 34.8 °F /  1.6 °C 32.7 °F /  0.4 °C 30.07 in /  1018.2 hPa Calm     92 % 0.00 in /  0 mm
06:20 37.1 °F /  2.8 °C 34.4 °F /  1.3 °C 30.04 in /  1017.2 hPa Calm     90 % 0.00 in /  0 mm
06:24 34.7 °F /  1.5 °C 32.6 °F /  0.3 °C 30.07 in /  1018.2 hPa Calm     92 % 0.00 in /  0 mm
06:25 36.9 °F /  2.7 °C 34.2 °F /  1.2 °C 30.04 in /  1017.2 hPa Calm     90 % 0.00 in /  0 mm
06:29 34.6 °F /  1.4 °C 32.5 °F /  0.3 °C 30.07 in /  1018.2 hPa Calm     92 % 0.00 in /  0 mm
06:30 36.7 °F /  2.6 °C 34.0 °F /  1.1 °C 30.04 in /  1017.2 hPa Calm     90 % 0.00 in /  0 mm
06:34 34.6 °F /  1.4 °C 32.5 °F /  0.3 °C 30.08 in /  1018.5 hPa Calm     92 % 0.00 in /  0 mm
06:35 36.7 °F /  2.6 °C 34.0 °F /  1.1 °C 30.04 in /  1017.2 hPa Calm   2.0 mph /  3.2 km/h 90 % 0.00 in /  0 mm
06:39 34.7 °F /  1.5 °C 32.6 °F /  0.3 °C 30.08 in /  1018.5 hPa Calm     92 % 0.00 in /  0 mm
06:40 36.8 °F /  2.7 °C 34.4 °F /  1.3 °C 30.03 in /  1016.8 hPa SW 2.0 mph /  3.2 km/h 3.0 mph /  4.8 km/h 91 % 0.00 in /  0 mm
06:44 34.8 °F /  1.6 °C 32.7 °F /  0.4 °C 30.08 in /  1018.5 hPa Calm     92 % 0.00 in /  0 mm
06:45 36.6 °F /  2.6 °C 33.9 °F /  1.1 °C 30.04 in /  1017.2 hPa SW 1.0 mph /  1.6 km/h 2.0 mph /  3.2 km/h 90 % 0.00 in /  0 mm
06:49 34.9 °F /  1.6 °C 32.8 °F /  0.4 °C 30.08 in /  1018.5 hPa Calm     92 % 0.00 in /  0 mm
06:54 35.0 °F /  1.7 °C 33.2 °F /  0.7 °C 30.08 in /  1018.5 hPa Calm     93 % 0.00 in /  0 mm
06:59 35.3 °F /  1.8 °C 33.5 °F /  0.8 °C 30.09 in /  1018.8 hPa Calm     93 % 0.00 in /  0 mm
07:00 36.1 °F /  2.3 °C 33.5 °F /  0.8 °C 30.04 in /  1017.2 hPa Calm   2.0 mph /  3.2 km/h 90 % 0.00 in /  0 mm
07:04 35.8 °F /  2.1 °C 34.0 °F /  1.1 °C 30.09 in /  1018.8 hPa Calm     93 % 0.00 in /  0 mm
07:05 36.1 °F /  2.3 °C 33.7 °F /  0.9 °C 30.04 in /  1017.2 hPa SW 1.0 mph /  1.6 km/h 2.0 mph /  3.2 km/h 91 % 0.00 in /  0 mm
07:09 36.3 °F /  2.4 °C 34.5 °F /  1.4 °C 30.09 in /  1018.8 hPa Calm     93 % 0.00 in /  0 mm
07:10 36.2 °F /  2.3 °C 33.8 °F /  1 °C 30.05 in /  1017.5 hPa Calm   2.0 mph /  3.2 km/h 91 % 0.00 in /  0 mm
07:14 36.7 °F /  2.6 °C 34.9 °F /  1.6 °C 30.09 in /  1018.8 hPa Calm     93 % 0.00 in /  0 mm
07:15 36.3 °F /  2.4 °C 33.9 °F /  1.1 °C 30.05 in /  1017.5 hPa Calm     91 % 0.00 in /  0 mm
07:19 37.3 °F /  2.9 °C 35.7 °F /  2.1 °C 30.09 in /  1018.8 hPa Calm     94 % 0.00 in /  0 mm
07:20 36.0 °F /  2.2 °C 33.6 °F /  0.9 °C 30.05 in /  1017.5 hPa Calm     91 % 0.00 in /  0 mm
07:24 37.8 °F /  3.2 °C 36.2 °F /  2.3 °C 30.10 in /  1019.2 hPa Calm     94 % 0.00 in /  0 mm
07:25 35.9 °F /  2.2 °C 33.5 °F /  0.8 °C 30.05 in /  1017.5 hPa Calm     91 % 0.00 in /  0 mm
07:29 38.2 °F /  3.4 °C 36.6 °F /  2.6 °C 30.10 in /  1019.2 hPa Calm     94 % 0.00 in /  0 mm
07:30 35.8 °F /  2.1 °C 33.4 °F /  0.8 °C 30.05 in /  1017.5 hPa Calm     91 % 0.00 in /  0 mm
07:34 38.7 °F /  3.7 °C 37.1 °F /  2.8 °C 30.10 in /  1019.2 hPa Calm     94 % 0.00 in /  0 mm
07:35 35.6 °F /  2 °C 33.2 °F /  0.7 °C 30.05 in /  1017.5 hPa Calm     91 % 0.00 in /  0 mm
07:39 40.3 °F /  4.6 °C 39.0 °F /  3.9 °C 30.10 in /  1019.2 hPa Calm     95 % 0.00 in /  0 mm
07:40 35.4 °F /  1.9 °C 33.0 °F /  0.6 °C 30.05 in /  1017.5 hPa Calm     91 % 0.00 in /  0 mm
07:44 41.5 °F /  5.3 °C 40.2 °F /  4.6 °C 30.10 in /  1019.2 hPa Calm     95 % 0.00 in /  0 mm
07:45 35.3 °F /  1.8 °C 32.9 °F /  0.5 °C 30.06 in /  1017.8 hPa Calm     91 % 0.00 in /  0 mm
07:49 42.4 °F /  5.8 °C 41.1 °F /  5.1 °C 30.10 in /  1019.2 hPa SW 2.3 mph /  3.7 km/h 2.0 mph /  3.2 km/h 95 % 0.00 in /  0 mm
07:50 35.3 °F /  1.8 °C 33.2 °F /  0.7 °C 30.06 in /  1017.8 hPa Calm     92 % 0.00 in /  0 mm
07:54 43.4 °F /  6.3 °C 41.8 °F /  5.4 °C 30.10 in /  1019.2 hPa SW 2.3 mph /  3.7 km/h 1.0 mph /  1.6 km/h 94 % 0.00 in /  0 mm
07:55 35.4 °F /  1.9 °C 33.3 °F /  0.7 °C 30.06 in /  1017.8 hPa Calm     92 % 0.00 in /  0 mm
07:59 44.6 °F /  7 °C 43.0 °F /  6.1 °C 30.11 in /  1019.5 hPa SW 1.2 mph /  1.9 km/h 0.2 mph /  0.3 km/h 94 % 0.00 in /  0 mm
08:00 35.3 °F /  1.8 °C 32.9 °F /  0.5 °C 30.06 in /  1017.8 hPa Calm     91 % 0.00 in /  0 mm
08:04 45.3 °F /  7.4 °C 43.1 °F /  6.2 °C 30.11 in /  1019.5 hPa SW 3.5 mph /  5.6 km/h 1.1 mph /  1.8 km/h 92 % 0.00 in /  0 mm
08:05 35.1 °F /  1.7 °C 32.7 °F /  0.4 °C 30.06 in /  1017.8 hPa Calm     91 % 0.00 in /  0 mm
08:09 45.9 °F /  7.7 °C 43.4 °F /  6.3 °C 30.11 in /  1019.5 hPa SW 6.0 mph /  9.7 km/h 5.3 mph /  8.5 km/h 91 % 0.00 in /  0 mm
08:10 35.1 °F /  1.7 °C 33.0 °F /  0.6 °C 30.06 in /  1017.8 hPa Calm     92 % 0.00 in /  0 mm
08:14 46.4 °F /  8 °C 43.0 °F /  6.1 °C 30.11 in /  1019.5 hPa SW 8.0 mph /  12.9 km/h 4.7 mph /  7.6 km/h 88 % 0.00 in /  0 mm
08:15 34.9 °F /  1.6 °C 32.8 °F /  0.4 °C 30.07 in /  1018.2 hPa Calm     92 % 0.00 in /  0 mm
08:19 47.0 °F /  8.3 °C 41.8 °F /  5.4 °C 30.11 in /  1019.5 hPa SW 6.9 mph /  11.1 km/h 3.8 mph /  6.1 km/h 82 % 0.00 in /  0 mm
08:20 34.9 °F /  1.6 °C 32.8 °F /  0.4 °C 30.07 in /  1018.2 hPa Calm     92 % 0.00 in /  0 mm
08:24 47.7 °F /  8.7 °C 41.8 °F /  5.4 °C 30.11 in /  1019.5 hPa SW 6.0 mph /  9.7 km/h 5.6 mph /  9 km/h 80 % 0.00 in /  0 mm
08:25 34.8 °F /  1.6 °C 32.7 °F /  0.4 °C 30.07 in /  1018.2 hPa Calm   1.0 mph /  1.6 km/h 92 % 0.00 in /  0 mm
08:29 48.4 °F /  9.1 °C 41.9 °F /  5.5 °C 30.11 in /  1019.5 hPa SW 6.0 mph /  9.7 km/h 5.4 mph /  8.7 km/h 78 % 0.00 in /  0 mm
08:30 34.6 °F /  1.4 °C 32.5 °F /  0.3 °C 30.07 in /  1018.2 hPa Calm     92 % 0.00 in /  0 mm
08:34 48.6 °F /  9.2 °C 40.7 °F /  4.8 °C 30.11 in /  1019.5 hPa WSW 9.2 mph /  14.8 km/h 3.5 mph /  5.6 km/h 74 % 0.00 in /  0 mm
08:35 34.6 °F /  1.4 °C 32.5 °F /  0.3 °C 30.08 in /  1018.5 hPa Calm     92 % 0.00 in /  0 mm
08:39 49.0 °F /  9.4 °C 40.7 °F /  4.8 °C 30.12 in /  1019.9 hPa WSW 6.9 mph /  11.1 km/h 4.3 mph /  6.9 km/h 73 % 0.00 in /  0 mm
08:40 34.6 °F /  1.4 °C 32.5 °F /  0.3 °C 30.08 in /  1018.5 hPa Calm     92 % 0.00 in /  0 mm
08:42 49.2 °F /  9.6 °C 40.9 °F /  4.9 °C 30.12 in /  1019.9 hPa WSW 9.2 mph /  14.8 km/h 6.2 mph /  10 km/h 73 % 0.00 in /  0 mm
08:45 34.8 °F /  1.6 °C 33.0 °F /  0.6 °C 30.08 in /  1018.5 hPa Calm     93 % 0.00 in /  0 mm
08:50 34.9 °F /  1.6 °C 32.8 °F /  0.4 °C 30.08 in /  1018.5 hPa Calm     92 % 0.00 in /  0 mm
08:55 34.9 °F /  1.6 °C 33.1 °F /  0.6 °C 30.08 in /  1018.5 hPa Calm     93 % 0.00 in /  0 mm
09:00 35.1 °F /  1.7 °C 33.3 °F /  0.7 °C 30.08 in /  1018.5 hPa Calm     93 % 0.00 in /  0 mm
09:05 35.5 °F /  1.9 °C 33.7 °F /  0.9 °C 30.09 in /  1018.8 hPa Calm     93 % 0.00 in /  0 mm
09:10 36.0 °F /  2.2 °C 34.4 °F /  1.3 °C 30.09 in /  1018.8 hPa Calm     94 % 0.00 in /  0 mm
09:15 36.4 °F /  2.4 °C 34.8 °F /  1.6 °C 30.09 in /  1018.8 hPa Calm     94 % 0.00 in /  0 mm
09:20 36.9 °F /  2.7 °C 35.3 °F /  1.8 °C 30.09 in /  1018.8 hPa Calm     94 % 0.00 in /  0 mm
09:25 37.5 °F /  3.1 °C 35.9 °F /  2.2 °C 30.09 in /  1018.8 hPa Calm     94 % 0.00 in /  0 mm
09:30 37.9 °F /  3.3 °C 36.3 °F /  2.4 °C 30.10 in /  1019.2 hPa Calm     94 % 0.00 in /  0 mm
09:35 38.4 °F /  3.6 °C 36.8 °F /  2.7 °C 30.10 in /  1019.2 hPa Calm     94 % 0.00 in /  0 mm
09:45 40.7 °F /  4.8 °C 39.4 °F /  4.1 °C 30.10 in /  1019.2 hPa Calm     95 % 0.00 in /  0 mm
09:50 41.9 °F /  5.5 °C 40.6 °F /  4.8 °C 30.10 in /  1019.2 hPa SW 1.0 mph /  1.6 km/h 2.0 mph /  3.2 km/h 95 % 0.00 in /  0 mm
09:55 42.7 °F /  5.9 °C 41.1 °F /  5.1 °C 30.11 in /  1019.5 hPa Calm   3.0 mph /  4.8 km/h 94 % 0.00 in /  0 mm
10:00 43.9 °F /  6.6 °C 42.3 °F /  5.7 °C 30.10 in /  1019.2 hPa SW 1.0 mph /  1.6 km/h 2.0 mph /  3.2 km/h 94 % 0.00 in /  0 mm
10:05 45.0 °F /  7.2 °C 43.1 °F /  6.2 °C 30.11 in /  1019.5 hPa Calm   2.0 mph /  3.2 km/h 93 % 0.00 in /  0 mm
10:10 45.5 °F /  7.5 °C 43.3 °F /  6.3 °C 30.11 in /  1019.5 hPa SW 1.0 mph /  1.6 km/h 3.0 mph /  4.8 km/h 92 % 0.00 in /  0 mm
10:15 46.0 °F /  7.8 °C 43.2 °F /  6.2 °C 30.11 in /  1019.5 hPa SW 2.0 mph /  3.2 km/h 7.0 mph /  11.3 km/h 90 % 0.00 in /  0 mm
10:20 46.6 °F /  8.1 °C 42.3 °F /  5.7 °C 30.11 in /  1019.5 hPa SW 7.0 mph /  11.3 km/h 11.0 mph /  17.7 km/h 85 % 0.00 in /  0 mm
10:25 47.3 °F /  8.5 °C 42.1 °F /  5.6 °C 30.11 in /  1019.5 hPa SW 3.0 mph /  4.8 km/h 8.0 mph /  12.9 km/h 82 % 0.00 in /  0 mm
10:30 47.9 °F /  8.8 °C 41.7 °F /  5.4 °C 30.11 in /  1019.5 hPa SW 3.0 mph /  4.8 km/h 8.0 mph /  12.9 km/h 79 % 0.00 in /  0 mm
10:35 48.5 °F /  9.2 °C 41.3 °F /  5.2 °C 30.11 in /  1019.5 hPa SW 8.0 mph /  12.9 km/h 11.0 mph /  17.7 km/h 76 % 0.00 in /  0 mm
10:40 48.7 °F /  9.3 °C 40.8 °F /  4.9 °C 30.11 in /  1019.5 hPa SW 3.0 mph /  4.8 km/h 12.0 mph /  19.3 km/h 74 % 0.00 in /  0 mm
10:45 49.1 °F /  9.5 °C 40.8 °F /  4.9 °C 30.12 in /  1019.9 hPa WSW 6.0 mph /  9.7 km/h 8.0 mph /  12.9 km/h 73 % 0.00 in /  0 mm
10:50 49.2 °F /  9.6 °C 39.8 °F /  4.3 °C 30.12 in /  1019.9 hPa SW 9.0 mph /  14.5 km/h 13.0 mph /  20.9 km/h 70 % 0.00 in /  0 mm
10:55 49.3 °F /  9.6 °C 39.9 °F /  4.4 °C 30.12 in /  1019.9 hPa SW 9.0 mph /  14.5 km/h 13.0 mph /  20.9 km/h 70 % 0.00 in /  0 mm
11:00 49.4 °F /  9.7 °C 40.0 °F /  4.4 °C 30.12 in /  1019.9 hPa WSW 9.0 mph /  14.5 km/h 12.0 mph /  19.3 km/h 70 % 0.00 in /  0 mm
11:05 50.1 °F /  10.1 °C 40.3 °F /  4.6 °C 30.12 in /  1019.9 hPa WSW 5.0 mph /  8 km/h 9.0 mph /  14.5 km/h 69 % 0.00 in /  0 mm
11:10 50.5 °F /  10.3 °C 39.9 °F /  4.4 °C 30.12 in /  1019.9 hPa SW 7.0 mph /  11.3 km/h 11.0 mph /  17.7 km/h 67 % 0.00 in /  0 mm
11:15 50.5 °F /  10.3 °C 39.9 °F /  4.4 °C 30.12 in /  1019.9 hPa SW 5.0 mph /  8 km/h 11.0 mph /  17.7 km/h 67 % 0.00 in /  0 mm
11:20 50.5 °F /  10.3 °C 39.6 °F /  4.2 °C 30.12 in /  1019.9 hPa SW 5.0 mph /  8 km/h 10.0 mph /  16.1 km/h 66 % 0.00 in /  0 mm
11:25 50.9 °F /  10.5 °C 39.9 °F /  4.4 °C 30.12 in /  1019.9 hPa SW 7.0 mph /  11.3 km/h 12.0 mph /  19.3 km/h 66 % 0.00 in /  0 mm
11:30 50.9 °F /  10.5 °C 40.3 °F /  4.6 °C 30.12 in /  1019.9 hPa WSW 5.0 mph /  8 km/h 11.0 mph /  17.7 km/h 67 % 0.00 in /  0 mm
11:35 51.2 °F /  10.7 °C 39.4 °F /  4.1 °C 30.12 in /  1019.9 hPa WSW 7.0 mph /  11.3 km/h 10.0 mph /  16.1 km/h 64 % 0.00 in /  0 mm
11:40 51.4 °F /  10.8 °C 40.0 °F /  4.4 °C 30.12 in /  1019.9 hPa West 8.0 mph /  12.9 km/h 11.0 mph /  17.7 km/h 65 % 0.00 in /  0 mm
11:45 51.4 °F /  10.8 °C 40.0 °F /  4.4 °C 30.13 in /  1020.2 hPa West 6.0 mph /  9.7 km/h 11.0 mph /  17.7 km/h 65 % 0.00 in /  0 mm
11:50 50.6 °F /  10.3 °C 39.7 °F /  4.3 °C 30.13 in /  1020.2 hPa West 8.0 mph /  12.9 km/h 9.0 mph /  14.5 km/h 66 % 0.00 in /  0 mm
11:55 51.1 °F /  10.6 °C 40.5 °F /  4.7 °C 30.12 in /  1019.9 hPa West 6.0 mph /  9.7 km/h 9.0 mph /  14.5 km/h 67 % 0.00 in /  0 mm
12:00 51.1 °F /  10.6 °C 38.5 °F /  3.6 °C 30.13 in /  1020.2 hPa West 3.0 mph /  4.8 km/h 14.0 mph /  22.5 km/h 62 % 0.00 in /  0 mm
12:05 51.6 °F /  10.9 °C 39.8 °F /  4.3 °C 30.13 in /  1020.2 hPa West 12.0 mph /  19.3 km/h 16.0 mph /  25.7 km/h 64 % 0.00 in /  0 mm
12:10 52.1 °F /  11.2 °C 39.9 °F /  4.4 °C 30.13 in /  1020.2 hPa SW 9.0 mph /  14.5 km/h 11.0 mph /  17.7 km/h 63 % 0.00 in /  0 mm
12:15 51.8 °F /  11 °C 39.6 °F /  4.2 °C 30.13 in /  1020.2 hPa SW 6.0 mph /  9.7 km/h 12.0 mph /  19.3 km/h 63 % 0.00 in /  0 mm
12:20 52.5 °F /  11.4 °C 39.4 °F /  4.1 °C 30.13 in /  1020.2 hPa WSW 7.0 mph /  11.3 km/h 15.0 mph /  24.1 km/h 61 % 0.00 in /  0 mm
12:30 52.0 °F /  11.1 °C 39.0 °F /  3.9 °C 30.14 in /  1020.5 hPa WSW 9.0 mph /  14.5 km/h 13.0 mph /  20.9 km/h 61 % 0.00 in /  0 mm
12:35 51.6 °F /  10.9 °C 39.4 °F /  4.1 °C 30.14 in /  1020.5 hPa West 6.0 mph /  9.7 km/h 11.0 mph /  17.7 km/h 63 % 0.00 in /  0 mm
12:40 51.9 °F /  11.1 °C 38.4 °F /  3.6 °C 30.14 in /  1020.5 hPa West 6.0 mph /  9.7 km/h 8.0 mph /  12.9 km/h 60 % 0.00 in /  0 mm
12:45 52.9 °F /  11.6 °C 39.4 °F /  4.1 °C 30.13 in /  1020.2 hPa WSW 8.0 mph /  12.9 km/h 14.0 mph /  22.5 km/h 60 % 0.00 in /  0 mm
12:50 53.4 °F /  11.9 °C 39.4 °F /  4.1 °C 30.13 in /  1020.2 hPa SW 8.0 mph /  12.9 km/h 15.0 mph /  24.1 km/h 59 % 0.00 in /  0 mm
12:55 52.7 °F /  11.5 °C 38.3 °F /  3.5 °C 30.13 in /  1020.2 hPa WSW 9.0 mph /  14.5 km/h 12.0 mph /  19.3 km/h 58 % 0.00 in /  0 mm
13:00 53.1 °F /  11.7 °C 38.3 °F /  3.5 °C 30.13 in /  1020.2 hPa WSW 5.0 mph /  8 km/h 11.0 mph /  17.7 km/h 57 % 0.00 in /  0 mm
13:05 53.5 °F /  11.9 °C 38.2 °F /  3.4 °C 30.14 in /  1020.5 hPa SW 8.0 mph /  12.9 km/h 13.0 mph /  20.9 km/h 56 % 0.00 in /  0 mm
13:10 52.9 °F /  11.6 °C 39.0 °F /  3.9 °C 30.14 in /  1020.5 hPa WSW 8.0 mph /  12.9 km/h 13.0 mph /  20.9 km/h 59 % 0.00 in /  0 mm
13:15 52.7 °F /  11.5 °C 38.3 °F /  3.5 °C 30.14 in /  1020.5 hPa WSW 3.0 mph /  4.8 km/h 8.0 mph /  12.9 km/h 58 % 0.00 in /  0 mm
13:20 53.8 °F /  12.1 °C 38.9 °F /  3.8 °C 30.14 in /  1020.5 hPa WSW 6.0 mph /  9.7 km/h 10.0 mph /  16.1 km/h 57 % 0.00 in /  0 mm
13:25 53.9 °F /  12.2 °C 39.0 °F /  3.9 °C 30.15 in /  1020.9 hPa WSW 7.0 mph /  11.3 km/h 13.0 mph /  20.9 km/h 57 % 0.00 in /  0 mm
13:30 53.8 °F /  12.1 °C 38.5 °F /  3.6 °C 30.15 in /  1020.9 hPa WSW 7.0 mph /  11.3 km/h 13.0 mph /  20.9 km/h 56 % 0.00 in /  0 mm
13:35 53.7 °F /  12.1 °C 38.4 °F /  3.6 °C 30.15 in /  1020.9 hPa WSW 5.0 mph /  8 km/h 10.0 mph /  16.1 km/h 56 % 0.00 in /  0 mm
13:40 53.7 °F /  12.1 °C 37.0 °F /  2.8 °C 30.14 in /  1020.5 hPa WSW 5.0 mph /  8 km/h 11.0 mph /  17.7 km/h 53 % 0.00 in /  0 mm
13:45 54.3 °F /  12.4 °C 37.5 °F /  3.1 °C 30.14 in /  1020.5 hPa WSW 3.0 mph /  4.8 km/h 8.0 mph /  12.9 km/h 53 % 0.00 in /  0 mm
13:50 55.1 °F /  12.8 °C 38.3 °F /  3.5 °C 30.14 in /  1020.5 hPa West 6.0 mph /  9.7 km/h 9.0 mph /  14.5 km/h 53 % 0.00 in /  0 mm
13:55 54.9 °F /  12.7 °C 38.1 °F /  3.4 °C 30.14 in /  1020.5 hPa WSW 7.0 mph /  11.3 km/h 13.0 mph /  20.9 km/h 53 % 0.00 in /  0 mm
14:00 54.7 °F /  12.6 °C 37.9 °F /  3.3 °C 30.14 in /  1020.5 hPa SW 7.0 mph /  11.3 km/h 10.0 mph /  16.1 km/h 53 % 0.00 in /  0 mm
14:05 54.6 °F /  12.6 °C 38.3 °F /  3.5 °C 30.14 in /  1020.5 hPa SW 7.0 mph /  11.3 km/h 9.0 mph /  14.5 km/h 54 % 0.00 in /  0 mm
14:10 55.4 °F /  13 °C 38.1 °F /  3.4 °C 30.14 in /  1020.5 hPa WSW 9.0 mph /  14.5 km/h 15.0 mph /  24.1 km/h 52 % 0.00 in /  0 mm
14:15 55.2 °F /  12.9 °C 37.4 °F /  3 °C 30.14 in /  1020.5 hPa West 3.0 mph /  4.8 km/h 10.0 mph /  16.1 km/h 51 % 0.00 in /  0 mm
14:20 55.8 °F /  13.2 °C 38.4 °F /  3.6 °C 30.13 in /  1020.2 hPa WSW 3.0 mph /  4.8 km/h 7.0 mph /  11.3 km/h 52 % 0.00 in /  0 mm
14:25 56.9 °F /  13.8 °C 38.4 °F /  3.6 °C 30.13 in /  1020.2 hPa WSW 9.0 mph /  14.5 km/h 12.0 mph /  19.3 km/h 50 % 0.00 in /  0 mm
14:30 55.8 °F /  13.2 °C 36.9 °F /  2.7 °C 30.13 in /  1020.2 hPa WSW 3.0 mph /  4.8 km/h 12.0 mph /  19.3 km/h 49 % 0.00 in /  0 mm
14:35 55.6 °F /  13.1 °C 37.7 °F /  3.2 °C 30.13 in /  1020.2 hPa SW 3.0 mph /  4.8 km/h 10.0 mph /  16.1 km/h 51 % 0.00 in /  0 mm
14:40 57.3 °F /  14.1 °C 37.2 °F /  2.9 °C 30.12 in /  1019.9 hPa SW 3.0 mph /  4.8 km/h 8.0 mph /  12.9 km/h 47 % 0.00 in /  0 mm
14:45 57.9 °F /  14.4 °C 36.7 °F /  2.6 °C 30.12 in /  1019.9 hPa WSW 10.0 mph /  16.1 km/h 13.0 mph /  20.9 km/h 45 % 0.00 in /  0 mm
14:50 56.4 °F /  13.6 °C 35.9 °F /  2.2 °C 30.12 in /  1019.9 hPa WSW 8.0 mph /  12.9 km/h 11.0 mph /  17.7 km/h 46 % 0.00 in /  0 mm
14:55 56.6 °F /  13.7 °C 37.6 °F /  3.1 °C 30.12 in /  1019.9 hPa SW 7.0 mph /  11.3 km/h 11.0 mph /  17.7 km/h 49 % 0.00 in /  0 mm
15:00 56.3 °F /  13.5 °C 35.8 °F /  2.1 °C 30.12 in /  1019.9 hPa SSW 7.0 mph /  11.3 km/h 13.0 mph /  20.9 km/h 46 % 0.00 in /  0 mm
15:05 56.4 °F /  13.6 °C 36.9 °F /  2.7 °C 30.12 in /  1019.9 hPa WSW 7.0 mph /  11.3 km/h 12.0 mph /  19.3 km/h 48 % 0.00 in /  0 mm
15:10 56.3 °F /  13.5 °C 36.3 °F /  2.4 °C 30.12 in /  1019.9 hPa West 7.0 mph /  11.3 km/h 9.0 mph /  14.5 km/h 47 % 0.00 in /  0 mm
15:15 56.4 °F /  13.6 °C 36.9 °F /  2.7 °C 30.12 in /  1019.9 hPa WSW 5.0 mph /  8 km/h 10.0 mph /  16.1 km/h 48 % 0.00 in /  0 mm
15:20 57.4 °F /  14.1 °C 37.9 °F /  3.3 °C 30.11 in /  1019.5 hPa SW 6.0 mph /  9.7 km/h 9.0 mph /  14.5 km/h 48 % 0.00 in /  0 mm
15:25 57.2 °F /  14 °C 37.7 °F /  3.2 °C 30.11 in /  1019.5 hPa SW 7.0 mph /  11.3 km/h 13.0 mph /  20.9 km/h 48 % 0.00 in /  0 mm
15:30 56.6 °F /  13.7 °C 37.6 °F /  3.1 °C 30.11 in /  1019.5 hPa SW 9.0 mph /  14.5 km/h 12.0 mph /  19.3 km/h 49 % 0.00 in /  0 mm
15:35 56.9 °F /  13.8 °C 37.4 °F /  3 °C 30.11 in /  1019.5 hPa SSW 6.0 mph /  9.7 km/h 13.0 mph /  20.9 km/h 48 % 0.00 in /  0 mm
15:40 56.7 °F /  13.7 °C 36.1 °F /  2.3 °C 30.11 in /  1019.5 hPa South 3.0 mph /  4.8 km/h 7.0 mph /  11.3 km/h 46 % 0.00 in /  0 mm
15:45 57.3 °F /  14.1 °C 37.8 °F /  3.2 °C 30.11 in /  1019.5 hPa SSW 5.0 mph /  8 km/h 9.0 mph /  14.5 km/h 48 % 0.00 in /  0 mm
15:50 58.6 °F /  14.8 °C 36.2 °F /  2.3 °C 30.11 in /  1019.5 hPa WNW 8.0 mph /  12.9 km/h 13.0 mph /  20.9 km/h 43 % 0.00 in /  0 mm
16:00 58.3 °F /  14.6 °C 37.0 °F /  2.8 °C 30.11 in /  1019.5 hPa West 3.0 mph /  4.8 km/h 8.0 mph /  12.9 km/h 45 % 0.00 in /  0 mm
16:05 57.9 °F /  14.4 °C 36.7 °F /  2.6 °C 30.11 in /  1019.5 hPa WSW 5.0 mph /  8 km/h 12.0 mph /  19.3 km/h 45 % 0.00 in /  0 mm
16:10 58.3 °F /  14.6 °C 38.7 °F /  3.7 °C 30.11 in /  1019.5 hPa WSW 10.0 mph /  16.1 km/h 13.0 mph /  20.9 km/h 48 % 0.00 in /  0 mm
16:15 58.0 °F /  14.4 °C 37.3 °F /  2.9 °C 30.11 in /  1019.5 hPa West 3.0 mph /  4.8 km/h 11.0 mph /  17.7 km/h 46 % 0.00 in /  0 mm
16:20 57.8 °F /  14.3 °C 37.7 °F /  3.2 °C 30.11 in /  1019.5 hPa WNW 7.0 mph /  11.3 km/h 12.0 mph /  19.3 km/h 47 % 0.00 in /  0 mm
16:25 57.8 °F /  14.3 °C 38.8 °F /  3.8 °C 30.10 in /  1019.2 hPa West 3.0 mph /  4.8 km/h 11.0 mph /  17.7 km/h 49 % 0.00 in /  0 mm
16:30 58.7 °F /  14.8 °C 39.6 °F /  4.2 °C 30.10 in /  1019.2 hPa West 8.0 mph /  12.9 km/h 12.0 mph /  19.3 km/h 49 % 0.00 in /  0 mm
16:35 58.3 °F /  14.6 °C 37.6 °F /  3.1 °C 30.10 in /  1019.2 hPa SW 7.0 mph /  11.3 km/h 13.0 mph /  20.9 km/h 46 % 0.00 in /  0 mm
16:40 58.6 °F /  14.8 °C 37.9 °F /  3.3 °C 30.10 in /  1019.2 hPa SSW 5.0 mph /  8 km/h 11.0 mph /  17.7 km/h 46 % 0.00 in /  0 mm
16:45 58.9 °F /  14.9 °C 38.7 °F /  3.7 °C 30.10 in /  1019.2 hPa SSW 7.0 mph /  11.3 km/h 9.0 mph /  14.5 km/h 47 % 0.00 in /  0 mm
16:50 59.7 °F /  15.4 °C 38.3 °F /  3.5 °C 30.10 in /  1019.2 hPa WSW 6.0 mph /  9.7 km/h 13.0 mph /  20.9 km/h 45 % 0.00 in /  0 mm
16:55 60.2 °F /  15.7 °C 37.6 °F /  3.1 °C 30.10 in /  1019.2 hPa West 8.0 mph /  12.9 km/h 14.0 mph /  22.5 km/h 43 % 0.00 in /  0 mm
17:00 59.4 °F /  15.2 °C 38.0 °F /  3.3 °C 30.10 in /  1019.2 hPa WSW 5.0 mph /  8 km/h 14.0 mph /  22.5 km/h 45 % 0.00 in /  0 mm
17:05 58.9 °F /  14.9 °C 38.1 °F /  3.4 °C 30.10 in /  1019.2 hPa WSW 8.0 mph /  12.9 km/h 16.0 mph /  25.7 km/h 46 % 0.00 in /  0 mm
17:10 58.8 °F /  14.9 °C 38.1 °F /  3.4 °C 30.09 in /  1018.8 hPa SW 3.0 mph /  4.8 km/h 11.0 mph /  17.7 km/h 46 % 0.00 in /  0 mm
17:15 58.7 °F /  14.8 °C 37.4 °F /  3 °C 30.10 in /  1019.2 hPa SW 9.0 mph /  14.5 km/h 13.0 mph /  20.9 km/h 45 % 0.00 in /  0 mm
17:20 58.3 °F /  14.6 °C 38.1 °F /  3.4 °C 30.09 in /  1018.8 hPa WSW 7.0 mph /  11.3 km/h 10.0 mph /  16.1 km/h 47 % 0.00 in /  0 mm
17:25 58.5 °F /  14.7 °C 37.8 °F /  3.2 °C 30.09 in /  1018.8 hPa West 6.0 mph /  9.7 km/h 8.0 mph /  12.9 km/h 46 % 0.00 in /  0 mm
17:30 59.1 °F /  15.1 °C 37.8 °F /  3.2 °C 30.09 in /  1018.8 hPa West 5.0 mph /  8 km/h 10.0 mph /  16.1 km/h 45 % 0.00 in /  0 mm
17:35 59.2 °F /  15.1 °C 37.9 °F /  3.3 °C 30.09 in /  1018.8 hPa West 3.0 mph /  4.8 km/h 9.0 mph /  14.5 km/h 45 % 0.00 in /  0 mm
17:40 59.3 °F /  15.2 °C 38.5 °F /  3.6 °C 30.09 in /  1018.8 hPa West 6.0 mph /  9.7 km/h 13.0 mph /  20.9 km/h 46 % 0.00 in /  0 mm
17:45 58.9 °F /  14.9 °C 37.6 °F /  3.1 °C 30.09 in /  1018.8 hPa West 5.0 mph /  8 km/h 11.0 mph /  17.7 km/h 45 % 0.00 in /  0 mm
20:37 54.5 °F /  12.5 °C 42.6 °F /  5.9 °C 30.12 in /  1019.9 hPa SW 9.2 mph /  14.8 km/h 9.2 mph /  14.8 km/h 64 % 0.00 in /  0 mm
20:44 54.3 °F /  12.4 °C 42.8 °F /  6 °C 30.12 in /  1019.9 hPa SW 4.0 mph /  6.4 km/h 2.8 mph /  4.5 km/h 65 % 0.00 in /  0 mm
20:49 54.2 °F /  12.3 °C 42.7 °F /  5.9 °C 30.12 in /  1019.9 hPa SW 4.0 mph /  6.4 km/h 2.3 mph /  3.7 km/h 65 % 0.00 in /  0 mm
20:54 54.1 °F /  12.3 °C 42.6 °F /  5.9 °C 30.12 in /  1019.9 hPa SW 3.5 mph /  5.6 km/h 2.7 mph /  4.3 km/h 65 % 0.00 in /  0 mm
20:59 54.0 °F /  12.2 °C 42.5 °F /  5.8 °C 30.12 in /  1019.9 hPa SW 3.5 mph /  5.6 km/h 2.9 mph /  4.7 km/h 65 % 0.00 in /  0 mm
21:04 53.8 °F /  12.1 °C 42.7 °F /  5.9 °C 30.12 in /  1019.9 hPa North 3.5 mph /  5.6 km/h 1.7 mph /  2.7 km/h 66 % 0.00 in /  0 mm
21:09 53.6 °F /  12 °C 42.5 °F /  5.8 °C 30.12 in /  1019.9 hPa SW 3.5 mph /  5.6 km/h 2.2 mph /  3.5 km/h 66 % 0.00 in /  0 mm
21:14 53.4 °F /  11.9 °C 42.7 °F /  5.9 °C 30.12 in /  1019.9 hPa SW 3.5 mph /  5.6 km/h 3.0 mph /  4.8 km/h 67 % 0.00 in /  0 mm
21:19 53.2 °F /  11.8 °C 42.5 °F /  5.8 °C 30.12 in /  1019.9 hPa WSW 3.5 mph /  5.6 km/h 2.0 mph /  3.2 km/h 67 % 0.00 in /  0 mm
21:24 53.1 °F /  11.7 °C 42.8 °F /  6 °C 30.12 in /  1019.9 hPa SW 4.0 mph /  6.4 km/h 2.5 mph /  4 km/h 68 % 0.00 in /  0 mm
21:29 53.0 °F /  11.7 °C 42.7 °F /  5.9 °C 30.12 in /  1019.9 hPa North 3.5 mph /  5.6 km/h 2.4 mph /  3.9 km/h 68 % 0.00 in /  0 mm
21:34 52.9 °F /  11.6 °C 43.0 °F /  6.1 °C 30.12 in /  1019.9 hPa SW 4.0 mph /  6.4 km/h 3.4 mph /  5.5 km/h 69 % 0.00 in /  0 mm
21:39 53.0 °F /  11.7 °C 42.7 °F /  5.9 °C 30.13 in /  1020.2 hPa North 5.0 mph /  8 km/h 4.1 mph /  6.6 km/h 68 % 0.00 in /  0 mm
21:44 53.2 °F /  11.8 °C 42.9 °F /  6.1 °C 30.13 in /  1020.2 hPa SW 5.0 mph /  8 km/h 3.6 mph /  5.8 km/h 68 % 0.00 in /  0 mm
21:49 53.3 °F /  11.8 °C 43.0 °F /  6.1 °C 30.13 in /  1020.2 hPa SW 5.8 mph /  9.3 km/h 4.1 mph /  6.6 km/h 68 % 0.00 in /  0 mm
21:54 53.5 °F /  11.9 °C 43.2 °F /  6.2 °C 30.13 in /  1020.2 hPa SW 6.0 mph /  9.7 km/h 3.6 mph /  5.8 km/h 68 % 0.00 in /  0 mm
21:59 53.5 °F /  11.9 °C 43.2 °F /  6.2 °C 30.13 in /  1020.2 hPa SW 3.5 mph /  5.6 km/h 3.2 mph /  5.1 km/h 68 % 0.00 in /  0 mm
22:04 53.4 °F /  11.9 °C 43.1 °F /  6.2 °C 30.13 in /  1020.2 hPa SW 4.6 mph /  7.4 km/h 2.6 mph /  4.2 km/h 68 % 0.00 in /  0 mm
22:09 53.4 °F /  11.9 °C 43.1 °F /  6.2 °C 30.13 in /  1020.2 hPa SW 3.5 mph /  5.6 km/h 2.5 mph /  4 km/h 68 % 0.00 in /  0 mm
22:14 53.2 °F /  11.8 °C 43.3 °F /  6.3 °C 30.13 in /  1020.2 hPa SW 3.5 mph /  5.6 km/h 2.2 mph /  3.5 km/h 69 % 0.00 in /  0 mm
22:19 53.1 °F /  11.7 °C 43.2 °F /  6.2 °C 30.13 in /  1020.2 hPa SW 2.3 mph /  3.7 km/h 2.0 mph /  3.2 km/h 69 % 0.00 in /  0 mm
22:24 53.0 °F /  11.7 °C 43.1 °F /  6.2 °C 30.13 in /  1020.2 hPa WSW 3.5 mph /  5.6 km/h 2.7 mph /  4.3 km/h 69 % 0.00 in /  0 mm
22:29 52.9 °F /  11.6 °C 43.0 °F /  6.1 °C 30.13 in /  1020.2 hPa SW 3.5 mph /  5.6 km/h 2.9 mph /  4.7 km/h 69 % 0.00 in /  0 mm
22:34 52.8 °F /  11.6 °C 42.9 °F /  6.1 °C 30.13 in /  1020.2 hPa SW 4.6 mph /  7.4 km/h 3.4 mph /  5.5 km/h 69 % 0.00 in /  0 mm
22:39 52.7 °F /  11.5 °C 42.8 °F /  6 °C 30.13 in /  1020.2 hPa North 4.6 mph /  7.4 km/h 2.9 mph /  4.7 km/h 69 % 0.00 in /  0 mm
22:44 52.5 °F /  11.4 °C 42.6 °F /  5.9 °C 30.13 in /  1020.2 hPa WSW 4.6 mph /  7.4 km/h 2.7 mph /  4.3 km/h 69 % 0.00 in /  0 mm
22:49 52.3 °F /  11.3 °C 42.4 °F /  5.8 °C 30.13 in /  1020.2 hPa SW 3.5 mph /  5.6 km/h 2.4 mph /  3.9 km/h 69 % 0.00 in /  0 mm
22:54 52.2 °F /  11.2 °C 42.3 °F /  5.7 °C 30.13 in /  1020.2 hPa WSW 3.5 mph /  5.6 km/h 1.9 mph /  3.1 km/h 69 % 0.00 in /  0 mm
22:59 52.1 °F /  11.2 °C 42.2 °F /  5.7 °C 30.13 in /  1020.2 hPa SW 2.3 mph /  3.7 km/h 0.7 mph /  1.1 km/h 69 % 0.00 in /  0 mm
23:04 51.9 °F /  11.1 °C 42.0 °F /  5.6 °C 30.13 in /  1020.2 hPa Calm     69 % 0.00 in /  0 mm
23:09 51.7 °F /  10.9 °C 41.9 °F /  5.5 °C 30.13 in /  1020.2 hPa Calm     69 % 0.00 in /  0 mm
23:14 51.4 °F /  10.8 °C 41.9 °F /  5.5 °C 30.13 in /  1020.2 hPa Calm     70 % 0.00 in /  0 mm
23:19 51.0 °F /  10.6 °C 41.6 °F /  5.3 °C 30.13 in /  1020.2 hPa SW 2.3 mph /  3.7 km/h 1.0 mph /  1.6 km/h 70 % 0.00 in /  0 mm
23:24 50.7 °F /  10.4 °C 41.6 °F /  5.3 °C 30.13 in /  1020.2 hPa SW 2.3 mph /  3.7 km/h 1.6 mph /  2.6 km/h 71 % 0.00 in /  0 mm
23:29 50.4 °F /  10.2 °C 41.3 °F /  5.2 °C 30.13 in /  1020.2 hPa SW 3.5 mph /  5.6 km/h 1.7 mph /  2.7 km/h 71 % 0.00 in /  0 mm
23:34 50.2 °F /  10.1 °C 41.5 °F /  5.3 °C 30.13 in /  1020.2 hPa WSW 2.3 mph /  3.7 km/h 0.2 mph /  0.3 km/h 72 % 0.00 in /  0 mm
23:39 50.0 °F /  10 °C 41.3 °F /  5.2 °C 30.13 in /  1020.2 hPa Calm     72 % 0.00 in /  0 mm
23:44 49.8 °F /  9.9 °C 41.1 °F /  5.1 °C 30.13 in /  1020.2 hPa Calm     72 % 0.00 in /  0 mm
23:49 49.4 °F /  9.7 °C 41.1 °F /  5.1 °C 30.13 in /  1020.2 hPa Calm     73 % 0.00 in /  0 mm
23:54 49.0 °F /  9.4 °C 41.1 °F /  5.1 °C 30.13 in /  1020.2 hPa WSW 2.3 mph /  3.7 km/h 1.7 mph /  2.7 km/h 74 % 0.00 in /  0 mm
23:59 48.9 °F /  9.4 °C 41.3 °F /  5.2 °C 30.13 in /  1020.2 hPa WSW 3.0 mph /  4.8 km/h 1.7 mph /  2.7 km/h 75 % 0.00 in /  0 mm
Ararat Weather
Compliments of Weather Underground - 2.5 mb
Click here to send mail.


ABOUT

Live weather data from Ararat, Victoria, Australia, 3377
Data uploaded from Cumulus every 5 minutes to Weather Underground.
This site then downloads the raw data for formatting and display.
Metric and imperial data can be displayed. Graphs and historical data available.
Includes Sun and Moon times and rain image live from BOM.

Check out Ararat Weather on Facebook, Twitter and Google +

Help support ongoing costs by checking out the ads





Follow @AraratWeather